Time;durP1;ratioP1;P1;durP2;ratioP2;P2;SDS_P1;SDS_P2;PMS_P1;PMS_P2;Temp;Humidity;BMP_temperature;BMP_pressure;BME280_temperature;BME280_humidity;BME280_pressure;Samples;Min_cycle;Max_cycle;Signal;HPM_P1;HPM_P2
2022/03/01 00:01:23;;;;;;;;;38.00;35.75;;;;;8.97;44.14;102059.34;5039703;28;45466;-63
2022/03/01 00:03:49;;;;;;;;;30.00;30.00;;;;;8.83;43.55;102041.16;5054091;28;45438;-61
2022/03/01 00:06:14;;;;;;;;;37.00;31.75;;;;;8.93;44.09;102051.53;5039404;28;45550;-61
2022/03/01 00:08:39;;;;;;;;;36.25;36.25;;;;;8.87;43.40;102047.25;5055558;28;45723;-63
2022/03/01 00:11:05;;;;;;;;;31.50;30.00;;;;;8.85;43.90;102044.66;5055690;28;45169;-62
2022/03/01 00:13:30;;;;;;;;;38.75;34.25;;;;;8.86;43.63;102046.41;5055203;28;45278;-59
2022/03/01 00:15:58;;;;;;;;;32.25;30.75;;;;;8.95;44.37;102060.31;5054727;28;45696;-59
2022/03/01 00:18:24;;;;;;;;;36.00;34.25;;;;;8.94;43.62;102056.78;5055393;28;45637;-62
2022/03/01 00:20:50;;;;;;;;;39.75;36.25;;;;;8.93;44.42;102056.84;5052952;28;45432;-64
2022/03/01 00:23:15;;;;;;;;;39.00;35.00;;;;;8.95;43.88;102062.97;5051595;28;45496;-61
2022/03/01 00:25:40;;;;;;;;;35.00;28.50;;;;;8.92;44.26;102063.06;5034021;28;45430;-60
2022/03/01 00:28:06;;;;;;;;;33.50;29.75;;;;;8.93;44.35;102055.06;5037833;28;45378;-61
2022/03/01 00:30:32;;;;;;;;;40.50;32.25;;;;;8.91;43.66;102046.25;5055237;28;45425;-61
2022/03/01 00:32:57;;;;;;;;;41.50;37.50;;;;;8.88;43.69;102034.88;5044240;28;45479;-61
2022/03/01 00:35:22;;;;;;;;;36.50;31.50;;;;;8.80;44.17;102022.66;5055362;28;45292;-62
2022/03/01 00:37:48;;;;;;;;;42.50;36.50;;;;;8.88;44.62;102035.75;5045986;28;45854;-61
2022/03/01 00:40:13;;;;;;;;;37.50;32.50;;;;;8.87;44.50;102039.31;5038161;28;46212;-61
2022/03/01 00:42:39;;;;;;;;;47.50;34.00;;;;;8.86;44.28;102038.44;5039935;28;45342;-62
2022/03/01 00:45:05;;;;;;;;;39.25;35.00;;;;;8.83;44.29;102033.19;5044976;28;45620;-61
2022/03/01 00:47:30;;;;;;;;;31.25;27.00;;;;;8.70;44.59;102018.50;5039053;28;45233;-63
2022/03/01 00:49:57;;;;;;;;;38.00;34.50;;;;;8.75;44.60;102040.50;5053708;28;45417;-62
2022/03/01 00:52:23;;;;;;;;;43.25;35.25;;;;;8.71;44.77;102048.53;5041627;28;45357;-60
2022/03/01 00:54:49;;;;;;;;;47.25;34.25;;;;;8.72;45.24;102044.97;5037114;28;45498;-60
2022/03/01 00:57:14;;;;;;;;;46.50;35.25;;;;;8.70;44.97;102045.03;5053027;28;45445;-61
2022/03/01 00:59:40;;;;;;;;;42.25;35.00;;;;;8.72;45.66;102056.47;5037458;28;48198;-62
2022/03/01 01:02:06;;;;;;;;;33.75;32.75;;;;;8.57;44.63;102031.19;5031148;28;45566;-60
2022/03/01 01:04:31;;;;;;;;;41.75;39.00;;;;;8.71;45.85;102054.72;5057758;28;45457;-62
2022/03/01 01:06:56;;;;;;;;;43.25;37.00;;;;;8.67;45.32;102050.41;5049419;28;45631;-63
2022/03/01 01:09:22;;;;;;;;;42.50;35.50;;;;;8.63;45.45;102038.16;5054650;28;45465;-61
2022/03/01 01:11:48;;;;;;;;;42.00;35.50;;;;;8.65;45.14;102036.31;5036320;28;45713;-63
2022/03/01 01:14:13;;;;;;;;;41.50;35.00;;;;;8.63;45.19;102029.31;5022521;28;45498;-63
2022/03/01 01:16:39;;;;;;;;;41.75;38.75;;;;;8.67;46.06;102030.97;5050098;28;45648;-61
2022/03/01 01:19:04;;;;;;;;;50.50;41.00;;;;;8.63;45.22;102030.19;5045597;28;46044;-60
2022/03/01 01:22:39;;;;;;;;;47.25;39.75;;;;;8.63;45.92;102030.19;5057314;28;45318;-60
2022/03/01 01:24:15;;;;;;;;;40.75;36.00;;;;;8.64;45.68;102031.94;5055077;28;45259;-61
2022/03/01 01:26:41;;;;;;;;;42.50;34.50;;;;;8.65;45.97;102033.66;5058282;28;45320;-61
2022/03/01 01:29:06;;;;;;;;;39.25;28.00;;;;;8.69;45.91;102037.09;5057237;28;45608;-61
2022/03/01 01:31:32;;;;;;;;;50.75;39.75;;;;;8.59;45.94;102023.19;5046853;28;45341;-61
2022/03/01 01:33:57;;;;;;;;;40.50;36.75;;;;;8.58;46.02;102024.09;5040489;28;45383;-61
2022/03/01 01:36:25;;;;;;;;;44.00;38.00;;;;;8.56;45.63;102023.28;5037913;28;45197;-63
2022/03/01 01:38:53;;;;;;;;;39.50;35.00;;;;;8.63;46.31;102032.84;5038642;28;46140;-62
2022/03/01 01:41:19;;;;;;;;;44.00;39.25;;;;;8.58;46.30;102021.47;5038412;28;45506;-60
2022/03/01 01:43:44;;;;;;;;;48.75;39.50;;;;;8.55;45.28;102021.53;5041886;28;45483;-61
2022/03/01 01:46:09;;;;;;;;;36.25;36.25;;;;;8.52;45.85;102025.16;5038082;28;45622;-60
2022/03/01 01:48:35;;;;;;;;;40.50;38.50;;;;;8.55;46.10;102038.31;5043548;28;45475;-60
2022/03/01 01:51:00;;;;;;;;;42.50;38.25;;;;;8.54;45.65;102030.41;5055944;28;45372;-61
2022/03/01 01:53:26;;;;;;;;;47.00;36.75;;;;;8.56;46.20;102039.19;5055065;28;45558;-60
2022/03/01 01:55:52;;;;;;;;;46.75;40.25;;;;;8.51;45.78;102027.84;5040038;28;45411;-61
2022/03/01 01:58:18;;;;;;;;;39.50;38.25;;;;;8.47;46.31;102023.53;5043763;28;45529;-61
2022/03/01 02:00:44;;;;;;;;;38.00;38.00;;;;;8.51;46.30;102041.09;5043526;28;45466;-61
2022/03/01 02:03:09;;;;;;;;;42.75;36.75;;;;;8.47;46.38;102036.78;5057411;28;45223;-60
2022/03/01 02:05:35;;;;;;;;;36.00;34.00;;;;;8.46;46.00;102032.38;5045283;28;45578;-60
2022/03/01 02:08:00;;;;;;;;;43.50;35.75;;;;;8.47;46.94;102032.34;5038571;28;46605;-62
2022/03/01 02:10:26;;;;;;;;;47.75;38.00;;;;;8.48;46.09;102027.91;5037318;28;45314;-62
2022/03/01 02:12:52;;;;;;;;;45.50;42.00;;;;;8.52;46.38;102032.22;5037230;28;45493;-60
2022/03/01 02:15:18;;;;;;;;;39.25;38.25;;;;;8.51;46.41;102026.06;5055340;28;45546;-61
2022/03/01 02:17:44;;;;;;;;;43.75;40.50;;;;;8.48;46.29;102031.44;5039162;28;46645;-61
2022/03/01 02:20:17;;;;;;;;;51.25;37.25;;;;;8.48;46.34;102025.28;5036010;28;45438;-64
2022/03/01 02:22:43;;;;;;;;;46.25;39.50;;;;;8.46;46.38;102027.97;5052025;28;45451;-61
2022/03/01 02:25:10;;;;;;;;;50.00;39.25;;;;;8.45;46.47;102022.66;5054796;28;45574;-60
2022/03/01 02:27:36;;;;;;;;;52.25;39.25;;;;;8.47;46.26;102023.53;5056375;28;46523;-61
2022/03/01 02:30:02;;;;;;;;;53.00;42.50;;;;;8.48;46.70;102020.84;5057265;28;45868;-60
2022/03/01 02:32:28;;;;;;;;;37.00;33.75;;;;;8.54;46.59;102030.41;5036154;28;45399;-61
2022/03/01 02:34:53;;;;;;;;;43.75;36.00;;;;;8.38;46.45;102006.06;5057472;28;45479;-60
2022/03/01 02:37:18;;;;;;;;;43.50;39.25;;;;;8.44;47.09;102019.16;5023927;28;45469;-62
2022/03/01 02:39:44;;;;;;;;;45.00;39.25;;;;;8.46;47.16;102027.97;5045567;28;45732;-62
2022/03/01 02:42:09;;;;;;;;;47.25;39.25;;;;;8.48;47.12;102020.84;5044149;28;45295;-61
2022/03/01 02:44:35;;;;;;;;;48.25;42.50;;;;;8.54;46.55;102036.59;5042176;28;45590;-61
2022/03/01 02:47:00;;;;;;;;;39.75;37.75;;;;;8.48;46.52;102017.31;5026423;28;48092;-61
2022/03/01 02:49:26;;;;;;;;;41.25;36.00;;;;;8.45;46.61;102018.22;5045947;28;45881;-60
2022/03/01 02:51:51;;;;;;;;;41.75;38.75;;;;;8.48;46.72;102019.97;5043598;28;45504;-60
2022/03/01 02:54:16;;;;;;;;;54.75;41.50;;;;;8.52;46.65;102027.78;5045673;28;45680;-61
2022/03/01 02:56:42;;;;;;;;;41.25;35.75;;;;;8.53;46.41;102029.53;5040686;28;45537;-60
2022/03/01 02:59:08;;;;;;;;;36.50;31.50;;;;;8.41;46.51;102021.88;5041220;28;45233;-61
2022/03/01 03:01:33;;;;;;;;;41.00;39.00;;;;;8.49;46.21;102032.31;5055983;28;45435;-61
2022/03/01 03:03:59;;;;;;;;;39.50;37.00;;;;;8.55;46.73;102042.75;5056638;28;45876;-60
2022/03/01 03:06:24;;;;;;;;;45.25;37.25;;;;;8.40;46.55;102019.28;5048425;28;45295;-62
2022/03/01 03:08:50;;;;;;;;;37.25;35.25;;;;;8.48;46.54;102042.06;5038470;28;45565;-61
2022/03/01 03:11:16;;;;;;;;;46.50;39.75;;;;;8.36;45.89;102014.97;5023857;28;45284;-62
2022/03/01 03:13:41;;;;;;;;;43.50;34.00;;;;;8.48;46.70;102038.53;5042624;28;45276;-61
2022/03/01 03:16:10;;;;;;;;;46.25;38.75;;;;;8.46;46.12;102038.56;5042948;28;46120;-60
2022/03/01 03:18:36;;;;;;;;;42.50;39.25;;;;;8.42;46.00;102030.69;5056288;28;45540;-61
2022/03/01 03:21:02;;;;;;;;;42.50;39.50;;;;;8.42;46.42;102039.53;5020801;28;45585;-61
2022/03/01 03:23:27;;;;;;;;;41.75;34.50;;;;;8.41;46.25;102029.84;5053431;28;45313;-60
2022/03/01 03:25:53;;;;;;;;;43.25;38.25;;;;;8.36;46.39;102025.56;5029912;28;47109;-61
2022/03/01 03:28:18;;;;;;;;;36.75;33.50;;;;;8.41;46.04;102031.63;5056213;28;45342;-61
2022/03/01 03:30:44;;;;;;;;;46.25;37.25;;;;;8.41;46.59;102028.97;5055349;28;45493;-61
2022/03/01 03:33:09;;;;;;;;;40.25;37.25;;;;;8.42;45.91;102030.69;5019449;28;45661;-60
2022/03/01 03:35:35;;;;;;;;;49.50;41.25;;;;;8.38;46.28;102024.63;5036063;28;46181;-61
2022/03/01 03:38:00;;;;;;;;;40.75;37.75;;;;;8.33;46.72;102025.59;5056281;28;45374;-61
2022/03/01 03:40:26;;;;;;;;;52.50;40.75;;;;;8.37;45.96;102024.66;5046972;28;45540;-60
2022/03/01 03:42:51;;;;;;;;;24.75;23.25;;;;;8.36;45.93;102012.31;5054093;28;45355;-61
2022/03/01 03:45:17;;;;;;;;;41.75;35.25;;;;;8.42;45.52;102025.41;5055796;28;45520;-61
2022/03/01 03:47:42;;;;;;;;;50.00;37.75;;;;;8.37;45.92;102009.63;5037348;28;45389;-61
2022/03/01 03:50:09;;;;;;;;;34.75;33.00;;;;;8.45;45.77;102018.22;5037333;28;45497;-61
2022/03/01 03:52:36;;;;;;;;;43.00;36.75;;;;;8.45;45.96;102015.59;5048411;28;45312;-60
2022/03/01 03:55:01;;;;;;;;;37.00;35.75;;;;;8.42;46.10;102015.66;5051041;28;46428;-61
2022/03/01 03:57:26;;;;;;;;;40.25;37.00;;;;;8.40;46.39;102012.19;5020491;28;45422;-61
2022/03/01 03:59:52;;;;;;;;;42.25;38.50;;;;;8.38;46.06;102023.75;5029780;28;45530;-60
2022/03/01 04:02:17;;;;;;;;;51.25;41.50;;;;;8.32;45.99;102010.59;5026552;28;46604;-61
2022/03/01 04:04:43;;;;;;;;;35.50;29.50;;;;;8.29;46.42;102009.75;5041458;28;45436;-61
2022/03/01 04:07:09;;;;;;;;;45.25;40.00;;;;;8.34;46.03;102015.00;5055677;28;45353;-61
2022/03/01 04:09:34;;;;;;;;;41.25;38.00;;;;;8.19;46.83;102010.88;5052723;28;45411;-60
2022/03/01 04:12:00;;;;;;;;;41.75;38.75;;;;;8.21;47.05;102006.44;5050969;28;45552;-61
2022/03/01 04:14:25;;;;;;;;;43.75;41.00;;;;;8.18;47.26;102006.50;5055554;28;45463;-61
2022/03/01 04:16:50;;;;;;;;;38.00;36.00;;;;;8.12;46.85;102006.66;5042162;28;45272;-61
2022/03/01 04:19:17;;;;;;;;;50.75;36.50;;;;;7.98;46.75;101974.31;5053868;28;46779;-61
2022/03/01 04:21:43;;;;;;;;;41.25;38.50;;;;;8.09;47.04;101993.47;5052613;28;45681;-61
2022/03/01 04:24:09;;;;;;;;;39.75;35.50;;;;;8.06;46.46;101997.94;5049812;28;47735;-61
2022/03/01 04:26:34;;;;;;;;;48.25;38.25;;;;;8.00;46.92;101996.31;5035287;28;45348;-61
2022/03/01 04:28:59;;;;;;;;;37.00;35.00;;;;;7.96;47.00;101995.53;5037017;28;45347;-60
2022/03/01 04:31:25;;;;;;;;;34.25;33.00;;;;;8.03;46.42;102012.16;5040171;28;45412;-60
2022/03/01 04:33:51;;;;;;;;;41.50;40.00;;;;;8.05;46.95;102020.94;5038749;28;46189;-60
2022/03/01 04:36:17;;;;;;;;;38.50;34.75;;;;;8.03;47.22;102017.44;5047557;28;45534;-60
2022/03/01 04:38:42;;;;;;;;;42.75;38.50;;;;;8.04;47.21;102021.84;5056698;28;45408;-62
2022/03/01 04:41:09;;;;;;;;;39.50;31.75;;;;;8.06;46.66;102027.97;5056449;28;45648;-61
2022/03/01 04:43:35;;;;;;;;;43.50;34.00;;;;;8.04;46.75;102020.97;5054055;28;46170;-62
2022/03/01 04:46:00;;;;;;;;;45.25;34.00;;;;;8.12;46.56;102022.53;5052643;28;45524;-61
2022/03/01 04:48:26;;;;;;;;;38.75;33.25;;;;;8.05;46.30;102005.03;5036943;28;46940;-60
2022/03/01 04:50:51;;;;;;;;;40.50;37.75;;;;;8.05;46.68;101983.84;5043009;28;45407;-60
2022/03/01 04:53:18;;;;;;;;;42.50;35.50;;;;;8.19;46.75;102018.81;5039489;28;45939;-61
2022/03/01 04:55:44;;;;;;;;;48.50;38.25;;;;;8.15;46.69;102017.16;5046405;28;45288;-61
2022/03/01 04:58:09;;;;;;;;;38.25;36.25;;;;;8.07;47.21;102002.34;5027867;28;45843;-63
2022/03/01 05:00:35;;;;;;;;;37.75;33.75;;;;;8.18;46.82;102021.50;5026707;28;45897;-60
2022/03/01 05:03:00;;;;;;;;;45.00;35.00;;;;;8.10;46.63;101986.41;5046732;28;45700;-62
2022/03/01 05:05:26;;;;;;;;;48.25;40.75;;;;;8.26;47.20;102004.53;5049763;28;45501;-60
2022/03/01 05:07:51;;;;;;;;;45.25;40.25;;;;;8.23;47.12;102004.63;5029394;28;45515;-60
2022/03/01 05:10:18;;;;;;;;;51.25;41.75;;;;;8.21;47.47;102003.78;5053769;28;45514;-61
2022/03/01 05:12:49;;;;;;;;;37.50;34.75;;;;;8.28;47.50;102002.72;5057773;28;45490;-61
2022/03/01 05:15:16;;;;;;;;;48.25;43.00;;;;;8.33;47.80;101999.94;5057459;28;45324;-61
2022/03/01 05:17:42;;;;;;;;;55.50;40.25;;;;;8.28;47.52;101997.41;5040392;28;45459;-61
2022/03/01 05:20:09;;;;;;;;;44.50;37.75;;;;;8.29;47.19;102015.06;5038255;28;45412;-61
2022/03/01 05:22:36;;;;;;;;;44.25;38.75;;;;;8.26;46.60;102012.50;5043774;28;45596;-61
2022/03/01 05:25:02;;;;;;;;;39.75;35.00;;;;;8.26;46.55;102004.53;5048096;28;45535;-61
2022/03/01 05:27:28;;;;;;;;;40.75;37.50;;;;;8.24;46.55;101987.81;5057155;28;45481;-61
2022/03/01 05:29:54;;;;;;;;;45.25;34.50;;;;;8.25;47.17;101997.50;5024045;28;45433;-61
2022/03/01 05:32:20;;;;;;;;;41.00;39.00;;;;;8.25;47.13;102000.16;5047077;28;45518;-61
2022/03/01 05:34:45;;;;;;;;;48.75;42.50;;;;;8.21;46.81;101990.53;5038028;28;45316;-60
2022/03/01 05:37:11;;;;;;;;;45.75;36.25;;;;;8.20;46.69;101982.59;5048533;28;45412;-60
2022/03/01 05:39:36;;;;;;;;;37.75;32.50;;;;;8.20;46.75;101991.44;5037769;28;46248;-61
2022/03/01 05:42:03;;;;;;;;;40.75;34.25;;;;;8.28;46.71;102007.16;5045087;28;45362;-59
2022/03/01 05:44:28;;;;;;;;;47.75;32.75;;;;;8.26;46.38;102009.84;5057148;28;45468;-61
2022/03/01 05:46:54;;;;;;;;;41.50;39.00;;;;;8.29;46.74;101998.28;5057886;28;45371;-60
2022/03/01 05:49:19;;;;;;;;;47.25;41.25;;;;;8.24;47.02;101986.94;5056021;28;45657;-61
2022/03/01 05:51:45;;;;;;;;;40.50;38.75;;;;;8.03;46.31;101943.25;5026402;28;46373;-61
2022/03/01 05:54:10;;;;;;;;;41.25;37.25;;;;;8.28;46.77;101983.28;5037257;28;45465;-61
2022/03/01 05:56:36;;;;;;;;;44.00;37.25;;;;;8.33;46.65;101993.78;5038246;28;45474;-60
2022/03/01 05:59:01;;;;;;;;;45.00;40.75;;;;;8.38;46.94;101997.22;5037772;28;45589;-60
2022/03/01 06:01:27;;;;;;;;;46.00;35.25;;;;;8.37;46.84;101976.94;5046468;28;46138;-61
2022/03/01 06:03:52;;;;;;;;;55.25;40.75;;;;;8.39;47.00;101994.53;5038386;28;45398;-61
2022/03/01 06:06:19;;;;;;;;;56.50;39.50;;;;;8.39;46.66;101994.53;5056771;28;45342;-60
2022/03/01 06:08:44;;;;;;;;;41.00;38.50;;;;;8.38;46.56;101989.28;5054398;28;45552;-61
2022/03/01 06:11:10;;;;;;;;;49.00;41.25;;;;;8.38;46.58;101987.50;5042459;28;45379;-61
2022/03/01 06:13:37;;;;;;;;;45.50;38.50;;;;;8.37;46.92;101990.19;5057194;28;45288;-61
2022/03/01 06:16:04;;;;;;;;;46.50;39.50;;;;;8.42;47.22;101989.16;5038162;28;45587;-61
2022/03/01 06:18:29;;;;;;;;;48.25;39.50;;;;;8.41;46.59;101986.53;5056973;28;45516;-60
2022/03/01 06:20:55;;;;;;;;;43.75;40.75;;;;;8.44;46.17;102005.88;5038351;28;46749;-61
2022/03/01 06:23:20;;;;;;;;;42.25;38.00;;;;;8.44;46.19;102002.38;5036256;28;45529;-61
2022/03/01 06:25:46;;;;;;;;;40.00;34.00;;;;;8.43;46.18;102000.63;5050400;28;45427;-61
2022/03/01 06:28:12;;;;;;;;;46.75;39.25;;;;;8.51;46.43;102010.16;5039743;28;45244;-62
2022/03/01 06:30:37;;;;;;;;;54.00;44.00;;;;;8.57;46.67;102014.41;5049543;28;45558;-60
2022/03/01 06:33:04;;;;;;;;;44.25;38.25;;;;;8.57;45.92;102020.59;5056913;28;45473;-60
2022/03/01 06:35:30;;;;;;;;;34.50;32.00;;;;;8.57;45.81;102019.72;5038599;28;45533;-61
2022/03/01 06:37:55;;;;;;;;;44.25;39.50;;;;;8.63;45.92;102031.97;5044543;28;45453;-61
2022/03/01 06:40:22;;;;;;;;;51.00;37.75;;;;;8.60;46.82;102030.28;5056773;28;46303;-63
2022/03/01 06:42:48;;;;;;;;;44.00;40.75;;;;;8.61;46.57;102025.84;5057104;28;45445;-62
2022/03/01 06:45:14;;;;;;;;;40.25;36.50;;;;;8.63;45.69;102037.28;5056948;28;45413;-61
2022/03/01 06:47:40;;;;;;;;;54.25;37.75;;;;;8.63;45.96;102027.53;5057040;28;45347;-60
2022/03/01 06:50:07;;;;;;;;;43.25;35.25;;;;;8.57;45.67;102012.63;5056912;28;46160;-62
2022/03/01 06:52:34;;;;;;;;;40.25;33.25;;;;;8.70;45.52;102036.19;5054702;28;45757;-61
2022/03/01 06:55:03;;;;;;;;;41.00;34.50;;;;;8.63;45.74;102019.59;5050966;28;45371;-63
2022/03/01 06:57:29;;;;;;;;;37.75;34.75;;;;;8.72;44.76;102043.19;5051276;28;45339;-59
2022/03/01 06:59:54;;;;;;;;;33.75;32.25;;;;;8.76;45.14;102042.22;5047888;28;46019;-62
2022/03/01 07:02:22;;;;;;;;;40.50;35.75;;;;;8.78;45.30;102044.84;5025586;28;45338;-60
2022/03/01 07:04:47;;;;;;;;;46.25;37.00;;;;;8.78;45.04;102040.41;5048508;28;45616;-61
2022/03/01 07:07:13;;;;;;;;;47.50;39.75;;;;;8.76;44.88;102034.28;5055669;28;45669;-60
2022/03/01 07:09:39;;;;;;;;;43.50;34.25;;;;;8.74;45.20;102025.50;5055984;28;45493;-60
2022/03/01 07:12:04;;;;;;;;;39.50;34.50;;;;;8.83;45.78;102042.94;5055335;28;45468;-61
2022/03/01 07:14:30;;;;;;;;;45.50;39.25;;;;;8.62;45.08;102017.84;5058196;28;45375;-63
2022/03/01 07:16:55;;;;;;;;;40.75;37.25;;;;;8.80;45.27;102043.00;5059942;28;45658;-63
2022/03/01 07:19:20;;;;;;;;;40.00;34.75;;;;;8.86;45.59;102049.06;5057602;28;45639;-62
2022/03/01 07:21:46;;;;;;;;;47.75;30.00;;;;;8.89;45.03;102057.84;5064234;28;45408;-62
2022/03/01 07:24:11;;;;;;;;;38.50;34.00;;;;;8.86;45.58;102051.69;5042144;28;45630;-62
2022/03/01 07:26:37;;;;;;;;;48.25;42.75;;;;;8.79;45.20;102044.78;5042592;28;45499;-64
2022/03/01 07:29:03;;;;;;;;;46.75;39.00;;;;;8.88;45.81;102042.84;5005828;28;45546;-63
2022/03/01 07:31:29;;;;;;;;;49.75;41.50;;;;;8.93;45.26;102038.25;5018120;28;45380;-64
2022/03/01 07:33:54;;;;;;;;;52.00;42.75;;;;;8.95;45.42;102037.31;5038935;28;45400;-66
2022/03/01 07:36:20;;;;;;;;;42.50;38.50;;;;;8.99;45.60;102040.78;5056722;28;45283;-63
2022/03/01 07:38:46;;;;;;;;;45.75;38.00;;;;;9.02;45.26;102044.22;5042704;28;46124;-68
2022/03/01 07:41:11;;;;;;;;;42.00;37.25;;;;;9.01;45.40;102047.78;5050569;28;45410;-61
2022/03/01 07:43:37;;;;;;;;;46.25;41.00;;;;;9.03;45.07;102037.13;5055388;28;45691;-62
2022/03/01 07:46:03;;;;;;;;;51.00;39.50;;;;;9.10;45.45;102043.97;5038056;28;45318;-66
2022/03/01 07:48:28;;;;;;;;;46.25;36.25;;;;;9.11;46.18;102045.72;5041339;28;45367;-65
2022/03/01 07:50:54;;;;;;;;;42.00;36.75;;;;;9.18;45.21;102043.78;5017883;28;45324;-61
2022/03/01 07:53:19;;;;;;;;;42.00;36.75;;;;;9.20;45.15;102037.53;5037327;28;45304;-60
2022/03/01 07:55:45;;;;;;;;;48.00;42.50;;;;;9.26;44.65;102048.00;5061391;28;45324;-62
2022/03/01 07:58:10;;;;;;;;;42.25;39.50;;;;;9.31;45.51;102045.19;5051043;27;45518;-63
2022/03/01 08:00:36;;;;;;;;;35.50;31.75;;;;;9.27;44.95;102049.72;5036206;28;45533;-64
2022/03/01 08:03:02;;;;;;;;;47.25;38.75;;;;;9.24;45.47;102041.81;5056993;28;45665;-63
2022/03/01 08:05:27;;;;;;;;;40.50;37.25;;;;;9.15;45.17;102028.81;5058459;28;45676;-61
2022/03/01 08:07:55;;;;;;;;;44.75;39.00;;;;;9.17;45.32;102042.94;5039537;28;46262;-66
2022/03/01 08:10:21;;;;;;;;;51.25;43.50;;;;;9.21;45.23;102047.22;5058724;28;45434;-62
2022/03/01 08:12:46;;;;;;;;;46.50;37.50;;;;;9.26;45.21;102047.13;5058614;28;45477;-62
2022/03/01 08:15:12;;;;;;;;;47.75;40.00;;;;;9.29;45.61;102042.59;5052290;28;45659;-61
2022/03/01 08:17:49;;;;;;;;;43.00;38.00;;;;;9.36;45.62;102028.22;5057941;28;45420;-61
2022/03/01 08:20:15;;;;;;;;;44.25;41.75;;;;;9.53;45.29;102038.38;5059086;28;45318;-62
2022/03/01 08:22:40;;;;;;;;;52.00;41.25;;;;;9.57;44.50;102052.44;5059190;28;45304;-61
2022/03/01 08:25:06;;;;;;;;;52.50;42.00;;;;;9.44;44.50;102042.16;5045798;28;45606;-62
2022/03/01 08:27:32;;;;;;;;;51.25;40.75;;;;;9.41;45.05;102028.97;5038884;28;46192;-63
2022/03/01 08:30:00;;;;;;;;;52.00;42.75;;;;;9.50;44.12;102043.75;5038818;28;45433;-61
2022/03/01 08:32:25;;;;;;;;;49.75;43.00;;;;;9.57;44.98;102029.41;5031666;28;45384;-62
2022/03/01 08:34:51;;;;;;;;;51.75;42.50;;;;;9.62;45.02;102032.78;5058568;28;45415;-62
2022/03/01 08:37:16;;;;;;;;;55.25;43.25;;;;;9.72;44.36;102039.56;5058173;28;46347;-61
2022/03/01 08:39:42;;;;;;;;;58.25;43.00;;;;;9.74;44.80;102044.84;5053310;28;45369;-62
2022/03/01 08:42:07;;;;;;;;;48.75;41.50;;;;;9.75;45.03;102046.56;5057998;28;45281;-62
2022/03/01 08:44:33;;;;;;;;;53.75;43.00;;;;;9.78;44.93;102041.19;5060152;28;45161;-60
2022/03/01 08:46:58;;;;;;;;;39.75;36.75;;;;;9.76;44.63;102043.00;5062046;28;45831;-61
2022/03/01 08:49:24;;;;;;;;;53.75;44.75;;;;;9.85;44.60;102058.69;5053833;28;45409;-62
2022/03/01 08:51:49;;;;;;;;;52.25;42.50;;;;;9.87;44.07;102051.53;5053567;28;45398;-61
2022/03/01 08:54:15;;;;;;;;;50.25;44.00;;;;;9.90;43.90;102054.13;5040255;28;45308;-62
2022/03/01 08:56:40;;;;;;;;;56.00;43.00;;;;;9.91;44.79;102061.16;5057224;28;47653;-62
2022/03/01 08:59:06;;;;;;;;;51.00;44.00;;;;;9.90;44.30;102056.78;5038674;28;45719;-60
2022/03/01 09:01:32;;;;;;;;;53.50;43.25;;;;;10.02;44.89;102060.81;5057452;28;45657;-60
2022/03/01 09:03:59;;;;;;;;;49.25;44.25;;;;;10.10;44.47;102068.56;5057390;28;45433;-61
2022/03/01 09:06:25;;;;;;;;;53.50;42.75;;;;;10.12;43.88;102056.97;5039485;28;47376;-60
2022/03/01 09:08:50;;;;;;;;;41.50;37.75;;;;;10.19;44.39;102068.31;5070422;28;45436;-61
2022/03/01 09:11:16;;;;;;;;;52.25;39.00;;;;;10.14;43.96;102055.13;5039894;28;45617;-61
2022/03/01 09:13:41;;;;;;;;;57.25;44.50;;;;;10.19;43.92;102069.16;5058443;28;45219;-62
2022/03/01 09:16:07;;;;;;;;;45.75;37.25;;;;;10.18;43.45;102066.56;5056369;28;46006;-62
2022/03/01 09:18:34;;;;;;;;;57.50;40.50;;;;;10.19;43.93;102068.31;5057815;28;45244;-62
2022/03/01 09:31:58;;;;;;;;;55.00;44.75;;;;;10.40;43.76;102041.03;5110116;27;45661;-62
2022/03/01 09:34:24;;;;;;;;;53.50;43.50;;;;;10.61;43.98;102044.81;5091971;27;45552;-62
2022/03/01 09:36:50;;;;;;;;;60.00;48.00;;;;;10.78;43.92;102047.75;5109034;27;45517;-63
2022/03/01 09:39:16;;;;;;;;;43.50;39.00;;;;;10.80;42.61;102045.91;5092088;27;45518;-57
2022/03/01 09:41:41;;;;;;;;;59.00;45.75;;;;;10.83;43.26;102035.19;5072032;28;45395;-61
2022/03/01 09:44:08;;;;;;;;;52.50;42.00;;;;;10.86;42.63;102026.22;5072635;27;45412;-62
2022/03/01 09:46:34;;;;;;;;;50.50;40.75;;;;;10.91;42.90;102032.25;5073231;27;45490;-60
2022/03/01 09:49:00;;;;;;;;;53.50;40.50;;;;;10.92;42.59;102034.84;5088239;27;45517;-57
2022/03/01 09:51:26;;;;;;;;;59.25;44.25;;;;;10.97;42.50;102031.19;5085130;27;46534;-58
2022/03/01 09:53:53;;;;;;;;;58.25;44.75;;;;;10.99;42.00;102024.00;5090351;27;45397;-61
2022/03/01 09:56:19;;;;;;;;;49.25;40.50;;;;;11.11;42.00;102045.75;5087065;27;45487;-55
2022/03/01 09:58:48;;;;;;;;;49.50;39.75;;;;;11.23;42.17;102040.00;5072361;27;45351;-51
2022/03/01 10:01:16;;;;;;;;;57.50;45.50;;;;;11.36;41.60;102055.53;5072008;27;45384;-56
2022/03/01 10:03:48;;;;;;;;;55.00;44.25;;;;;11.41;41.97;102054.44;5071868;28;45455;-54
2022/03/01 10:06:14;;;;;;;;;51.50;42.00;;;;;11.46;41.43;102051.63;5072045;27;45385;-60
2022/03/01 10:08:40;;;;;;;;;43.75;38.25;;;;;11.53;41.09;102064.66;5087413;27;45346;-62
2022/03/01 10:11:06;;;;;;;;;56.00;47.00;;;;;11.51;41.65;102058.50;5071506;27;45441;-57
2022/03/01 10:13:35;;;;;;;;;53.75;43.50;;;;;11.65;42.16;102047.34;5073928;27;45574;-58
2022/03/01 10:16:08;;;;;;;;;56.75;43.00;;;;;11.80;41.45;102056.59;5092501;27;45539;-57
2022/03/01 10:18:38;;;;;;;;;55.00;42.50;;;;;11.88;41.54;102048.31;5091491;27;45540;-64
2022/03/01 10:21:10;;;;;;;;;59.50;49.25;;;;;12.03;42.04;102063.72;5092538;27;45473;-60
2022/03/01 10:23:46;;;;;;;;;60.75;45.75;;;;;12.11;41.06;102056.28;5092018;27;45483;-58
2022/03/01 10:26:18;;;;;;;;;55.25;44.50;;;;;12.16;40.45;102059.63;5092115;27;45398;-63
2022/03/01 10:28:45;;;;;;;;;61.50;46.25;;;;;12.15;40.73;102044.56;5092244;27;45153;-57
2022/03/01 10:31:19;;;;;;;;;50.75;42.00;;;;;12.33;40.60;102049.16;5078980;27;46123;-62
2022/03/01 10:34:07;;;;;;;;;51.75;42.75;;;;;12.48;40.09;102046.78;5058120;28;45294;-65
2022/03/01 10:36:46;;;;;;;;;54.25;44.00;;;;;12.58;40.10;102040.16;5058645;28;45458;-59
2022/03/01 10:39:15;;;;;;;;;57.50;46.75;;;;;12.62;39.62;102039.94;5058178;28;45315;-62
2022/03/01 10:41:43;;;;;;;;;64.25;50.50;;;;;12.69;39.80;102033.44;5058399;28;45362;-66
2022/03/01 10:44:14;;;;;;;;;58.25;46.25;;;;;12.73;40.08;102033.31;5058131;28;45543;-58
2022/03/01 10:46:46;;;;;;;;;60.00;47.25;;;;;12.74;39.13;102032.38;5072341;27;45445;-59
2022/03/01 10:49:15;;;;;;;;;60.50;47.75;;;;;12.71;40.02;102036.03;5061382;28;45297;-60
2022/03/01 10:51:56;;;;;;;;;56.00;45.00;;;;;12.60;39.56;102033.81;5057788;28;45468;-56
2022/03/01 10:54:24;;;;;;;;;60.25;44.00;;;;;12.54;39.67;102038.56;5066333;27;45461;-62
2022/03/01 10:56:51;;;;;;;;;50.50;42.25;;;;;12.54;39.81;102035.88;5077974;27;45216;-60
2022/03/01 10:59:18;;;;;;;;;50.50;43.00;;;;;12.59;40.06;102028.53;5077546;27;45444;-62
2022/03/01 11:01:43;;;;;;;;;56.50;43.25;;;;;12.67;39.83;102023.75;5077091;27;45453;-58
2022/03/01 11:04:08;;;;;;;;;54.50;42.00;;;;;12.75;39.51;102023.41;5077352;27;45590;-59
2022/03/01 11:06:35;;;;;;;;;58.50;46.75;;;;;12.87;39.56;102014.91;5074274;27;45279;-61
2022/03/01 11:09:01;;;;;;;;;53.75;42.50;;;;;13.02;39.75;102018.69;5057027;28;45285;-64
2022/03/01 11:11:29;;;;;;;;;45.00;38.50;;;;;13.10;38.92;102012.09;5057786;28;45379;-66
2022/03/01 11:13:57;;;;;;;;;54.75;42.75;;;;;13.13;39.20;102011.09;5057858;28;45320;-63
2022/03/01 11:16:41;;;;;;;;;43.75;38.50;;;;;13.32;38.47;102001.38;5058898;28;45368;-61
2022/03/01 11:19:12;;;;;;;;;50.00;37.50;;;;;13.35;38.34;102005.69;5078614;27;45408;-64
2022/03/01 11:21:41;;;;;;;;;50.75;39.75;;;;;13.38;37.80;101992.19;5076027;28;46932;-63
2022/03/01 11:24:11;;;;;;;;;33.50;28.00;;;;;13.46;38.15;101987.38;5078110;28;45357;-61